Track Галкина Анастасия

Time Latitude Longitude Accuracy (66% radius in meters) Altitude (meters) Speed (km/hour) Bearing (degrees) Battery (%) GPS flag
08:25:56 60.370983 29.556327 8 73 0 345.46325683594 81 1 delete
08:25:48 60.370979 29.556313 12 67 0 219.16819763184 81 1 delete
08:25:44 60.370970 29.556286 8 72 0 219.16819763184 81 1 delete
08:25:31 60.370961 29.556224 6 84 0 219.16819763184 81 1 delete
08:25:18 60.370958 29.556231 6 82 0 354.82818603516 81 1 delete
08:25:06 60.370936 29.556213 6 90 0 354.82818603516 81 1 delete
08:24:53 60.370969 29.556266 6 78 0 354.82818603516 81 1 delete
08:24:40 60.370958 29.556317 6 76 0 130.72454833984 81 1 delete
08:24:34 60.370944 29.556254 12 80 0 130.72454833984 81 1 delete
08:24:27 60.370947 29.556140 6 85 0 130.72454833984 81 1 delete
08:24:15 60.370954 29.556150 6 80 0 130.72454833984 81 1 delete
08:24:11 60.370949 29.556164 4 85 0 130.72454833984 81 1 delete
08:24:03 60.370949 29.556210 6 81 0 130.72454833984 81 1 delete
08:23:50 60.370943 29.556312 6 79 0 130.72454833984 81 1 delete
08:23:38 60.370951 29.556217 6 79 0 130.72454833984 81 1 delete
08:23:26 60.370955 29.556183 6 76 0 130.72454833984 81 1 delete
08:23:13 60.370965 29.556281 6 69 0 130.72454833984 81 1 delete
08:23:01 60.370949 29.556258 6 77 0 130.72454833984 81 1 delete
08:22:48 60.370945 29.556174 6 79 0 130.72454833984 81 1 delete
08:22:44 60.370938 29.556169 6 85 0 130.72454833984 81 1 delete
08:22:36 60.370940 29.556249 6 81 0 130.72454833984 81 1 delete
08:22:32 60.370942 29.556267 8 82 0 130.72454833984 81 1 delete
08:22:23 60.370965 29.556335 6 78 0 130.72454833984 81 1 delete
08:22:11 60.370969 29.556347 6 76 0 130.72454833984 81 1 delete
08:22:10 60.370969 29.556343 6 78 0 130.72454833984 81 1 delete
08:21:58 60.370949 29.556295 6 83 0 130.72454833984 81 1 delete
08:21:45 60.370953 29.556234 6 81 0 130.72454833984 81 1 delete
08:21:32 60.370964 29.556259 12 76 0 130.72454833984 81 1 delete
08:21:19 60.370961 29.556256 6 81 0 130.72454833984 81 1 delete
08:21:06 60.370979 29.556236 8 78 0 130.72454833984 81 1 delete
08:20:54 60.370974 29.556238 6 79 0 130.72454833984 81 1 delete
08:20:42 60.370972 29.556253 6 76 0 130.72454833984 81 1 delete
08:20:41 60.370968 29.556257 8 77 0 130.72454833984 81 1 delete
08:20:28 60.370945 29.556283 6 81 0 180.43951416016 81 1 delete
08:20:15 60.370918 29.556290 6 64 0 180.43951416016 81 1 delete
08:20:14 60.370930 29.556286 8 65 0 180.43951416016 81 1 delete
08:20:03 60.370970 29.556281 6 83 0 180.43951416016 81 1 delete
08:20:00 60.370977 29.556275 8 76 0.11307406425476 199.99017333984 81 1 delete
08:19:50 60.371008 29.556300 6 81 0 3.1721773147583 81 1 delete
08:19:38 60.371006 29.556305 6 76 0 3.1721773147583 81 1 delete
08:19:25 60.371029 29.556363 6 84 0 3.1721773147583 81 1 delete
08:19:13 60.371031 29.556315 6 83 0 3.1721773147583 81 1 delete
08:19:09 60.371020 29.556312 6 82 0 3.1721773147583 81 1 delete
08:19:00 60.370996 29.556300 6 75 0 3.1721773147583 81 1 delete
08:18:48 60.370986 29.556336 4 76 0 3.1721773147583 81 1 delete
08:18:41 60.370976 29.556341 6 69 0 3.1721773147583 81 1 delete
08:18:36 60.371010 29.556351 6 76 0 3.1721773147583 81 1 delete
08:18:24 60.371020 29.556392 6 74 0 3.1721773147583 81 1 delete
08:18:14 60.371018 29.556382 4 74 0 3.1721773147583 81 1 delete
08:18:11 60.371012 29.556368 4 76 0 3.1721773147583 81 1 delete